KAOH/AOH METAR and TAF weather

Enter ICAO airport designator
Station Type Date Time Source
KAOH METAR 2020/07/11 20:53 UTC NOAA

KAOH 112053Z AUTO 29009G21KT 10SM FEW060 BKN085 28/17 A2985 RMK AO2 SLP099 T02830172 58007


Station Type Date Time Source
KAOH Decoded METAR 2020/07/11 20:53 UTC NOAA

LIMA ALLEN COUNTY AIRPORT, OH, United States (KAOH) 40-42N 84-01W 296M
Jul 11, 2020 - 04:53 PM EDT / 2020.07.11 2053 UTC
Wind: from the WNW (290 degrees) at 10 MPH (9 KT) gusting to 24 MPH (21 KT):0
Visibility: 10 mile(s):0
Sky conditions: mostly cloudy
Temperature: 82.9 F (28.3 C)
Dew Point: 63.0 F (17.2 C)
Relative Humidity: 50%
Pressure (altimeter): 29.85 in. Hg (1010 hPa)
Pressure tendency: 0.02 inches (0.7 hPa) lower than three hours ago
ob: KAOH 112053Z AUTO 29009G21KT 10SM FEW060 BKN085 28/17 A2985 RMK AO2 SLP099 T02830172 58007
cycle: 21

Station Type Date Time Source
KAOH TAF UTC NOAA

Error!

Example: see airport list